Gerald R. Ford International Airport
KGRR : rendu visible

Aérodrome :











RETROUVEZ-NOUS SUR...

 
LOGIN :

S'inscrire | Disclaimer

   EN    FR    IT 

 









Légende :    VFR   VFR Marginal   IFR   IFR Intensif   IFR Très Intensif
Visi : 
Plafond : 
>= 8 km
>= 3000ft
5 à 8 km
1000 à 3000 ft
1500m à 5 km
500 à 1000 ft
800 à 1500m
200 à 500 ft
< 800m
< 200 ft
Symboles :   Orages  Brouillard  Fortes neiges  Fortes précipitations  Vent > 20 kt






- Altitude de l'aérodrome : 794 ft
- Code IATA : GRR


KGRR - Gerald R. Ford International

DERNIER METAR :
  • 151153Z 29010KT 9SM -SN SCT016 BKN030 BKN049 M03/M06 A2994 RMK AO2 SLP147 P0000 60001 70001 I6001 T10281056 11017 21028 53024 $

METARs EXPIRÉS :
  • 151053Z 27012KT 5SM -SN BR BKN013 OVC018 M02/M04 A2990 RMK AO2 SLP135 P0000 T10221044 $
  • 151034Z AUTO 27010KT 3SM -SN BR BKN013 OVC018 M02/M04 A2989 RMK AO2 P0000 T10221039 $
  • 151009Z AUTO 27010KT 3SM -SN BR FEW011 BKN017 OVC022 M02/M04 A2987 RMK AO2 P0000 T10221044 $
  • 150953Z AUTO 26012KT 4SM -SN BR BKN014 OVC019 M02/M04 A2986 RMK AO2 SLP122 P0000 T10221044 $
  • 150949Z AUTO 26010KT 4SM -SN BR BKN015 OVC021 M02/M04 A2986 RMK AO2 P0000 $

TAF KGRR
Valide du 15 à 12h jusqu'au 16 à 12h UTC


151125Z 1512/1612 27012KT 5SM -SN BR BKN013
FM151900 27007KT P6SM BKN035
FM160300 VRB03KT P6SM BKN050



MET'MAP, la Météo Aéronautique d'un coup d'oeil ! - Copyright ORBIFLY Décembre 2007 - Disclaimer

ORBIFLY MET'MAP TEAM :

Programmation & Développement : Alexandra Zaïnal
Sur une idée originale de : Baudouin d'Aumeries
Assistance à la programmation : Marc-Olivier Méhu
Soutien technique & logistique : Manuel Goepfert

Contact : metmap@orbifly.com




SOURCES & CREDITS :

   NOAA       Earth
Advisory